createdAt,value
2022-08-24T00:00:17.419Z,99.90
2022-08-24T00:02:44.404Z,99.90
2022-08-24T00:05:14.696Z,99.90
2022-08-24T00:07:42.301Z,99.90
2022-08-24T00:10:11.724Z,99.90
2022-08-24T00:12:38.528Z,99.90
2022-08-24T00:15:07.465Z,99.90
2022-08-24T00:17:34.314Z,99.90
2022-08-24T00:20:02.478Z,99.90
2022-08-24T00:22:29.280Z,99.90
2022-08-24T00:24:56.882Z,99.90
2022-08-24T00:27:23.728Z,99.90
2022-08-24T00:29:50.533Z,99.90
2022-08-24T00:32:17.336Z,99.90
2022-08-24T00:34:54.046Z,99.90
2022-08-24T00:37:28.618Z,99.90
2022-08-24T00:39:56.428Z,99.90
2022-08-24T00:42:24.601Z,99.90
2022-08-24T00:44:52.165Z,99.90
2022-08-24T00:47:25.246Z,99.90
2022-08-24T00:50:00.880Z,99.90
2022-08-24T00:52:39.712Z,99.90
2022-08-24T00:55:32.900Z,99.90
2022-08-24T00:58:03.122Z,99.90
2022-08-24T01:00:34.932Z,99.90
2022-08-24T01:03:05.173Z,99.90
2022-08-24T01:05:33.392Z,99.90
2022-08-24T01:08:02.106Z,99.90
2022-08-24T01:10:35.390Z,99.90
2022-08-24T01:13:05.882Z,99.90
2022-08-24T01:15:42.035Z,99.90
2022-08-24T01:18:32.909Z,99.90
2022-08-24T01:21:25.847Z,99.90
2022-08-24T01:23:57.367Z,99.90
2022-08-24T01:26:32.449Z,99.90
2022-08-24T01:29:09.513Z,99.90
2022-08-24T01:31:36.516Z,99.90
2022-08-24T01:34:04.196Z,99.90
2022-08-24T01:36:36.127Z,99.90
2022-08-24T01:39:17.101Z,99.90
2022-08-24T01:41:44.075Z,99.90
2022-08-24T01:44:11.125Z,99.90
2022-08-24T01:46:38.052Z,99.90
2022-08-24T01:49:05.445Z,99.90
2022-08-24T01:51:34.067Z,99.90
2022-08-24T01:54:03.175Z,99.90
2022-08-24T01:56:34.088Z,99.90
2022-08-24T01:59:01.324Z,99.90
2022-08-24T02:01:31.722Z,99.90
2022-08-24T02:04:02.550Z,99.90
2022-08-24T02:06:29.752Z,99.90
2022-08-24T02:08:56.576Z,99.90
2022-08-24T02:11:23.483Z,99.90
2022-08-24T02:13:50.337Z,99.90
2022-08-24T02:16:19.540Z,99.90
2022-08-24T02:18:46.864Z,99.90
2022-08-24T02:21:14.334Z,99.90
2022-08-24T02:23:42.608Z,99.90
2022-08-24T02:26:10.580Z,99.90
2022-08-24T02:28:38.563Z,99.90
2022-08-24T02:31:07.590Z,99.90
2022-08-24T02:33:36.288Z,99.90
2022-08-24T02:36:03.987Z,99.90
2022-08-24T02:38:34.068Z,99.90
2022-08-24T02:41:01.011Z,99.90
2022-08-24T02:43:28.189Z,99.90
2022-08-24T02:45:55.498Z,99.90
2022-08-24T02:48:22.305Z,99.90
2022-08-24T02:50:51.351Z,99.90
2022-08-24T02:53:20.479Z,99.90
2022-08-24T02:55:47.288Z,99.90
2022-08-24T02:58:16.510Z,99.90
2022-08-24T03:00:47.351Z,99.90
2022-08-24T03:03:14.772Z,99.90
2022-08-24T03:05:41.580Z,99.90
2022-08-24T03:08:08.386Z,99.90
2022-08-24T03:10:35.451Z,99.90
2022-08-24T03:13:03.107Z,99.90
2022-08-24T03:15:30.267Z,99.90
2022-08-24T03:17:57.704Z,99.90
2022-08-24T03:20:24.995Z,99.90
2022-08-24T03:22:52.790Z,99.90
2022-08-24T03:25:21.675Z,99.90
2022-08-24T03:27:48.411Z,99.90
2022-08-24T03:30:18.082Z,99.90
2022-08-24T03:32:44.906Z,99.90
2022-08-24T03:35:12.551Z,99.90
2022-08-24T03:37:39.886Z,99.90
2022-08-24T03:40:12.166Z,99.90
2022-08-24T03:42:50.625Z,99.90
2022-08-24T03:45:18.489Z,99.90
2022-08-24T03:47:45.500Z,99.90
2022-08-24T03:50:12.432Z,99.90
2022-08-24T03:52:39.204Z,99.90
2022-08-24T03:55:07.012Z,99.90
2022-08-24T03:57:33.792Z,99.90
2022-08-24T04:00:01.437Z,99.90
2022-08-24T04:02:32.446Z,99.90
2022-08-24T04:04:59.865Z,99.90
2022-08-24T04:07:27.439Z,99.90
2022-08-24T04:09:54.275Z,99.90
2022-08-24T04:12:23.362Z,99.90
2022-08-24T04:14:55.856Z,99.90
2022-08-24T04:17:22.693Z,99.90
2022-08-24T04:19:59.080Z,99.90
2022-08-24T04:22:31.056Z,99.90
2022-08-24T04:24:57.939Z,99.90
2022-08-24T04:27:24.842Z,99.90
2022-08-24T04:29:51.980Z,99.90
2022-08-24T04:32:19.362Z,99.90
2022-08-24T04:34:47.079Z,99.90
2022-08-24T04:37:14.339Z,99.90
2022-08-24T04:39:42.222Z,99.90
2022-08-24T04:42:09.739Z,99.90
2022-08-24T04:48:27.298Z,99.90
2022-08-24T04:54:40.530Z,99.90
2022-08-24T04:57:07.342Z,99.90
2022-08-24T04:59:34.172Z,99.90
2022-08-24T05:02:01.052Z,99.90
2022-08-24T05:04:27.968Z,99.90
2022-08-24T05:06:56.354Z,99.90
2022-08-24T05:09:23.205Z,99.90
2022-08-24T05:11:51.072Z,99.90
2022-08-24T05:14:18.023Z,99.90
2022-08-24T05:16:45.812Z,99.90
2022-08-24T05:19:20.283Z,99.90
2022-08-24T05:21:47.379Z,99.90
2022-08-24T05:24:14.248Z,99.90
2022-08-24T05:26:41.299Z,99.90
2022-08-24T05:29:09.351Z,99.90
2022-08-24T05:31:36.218Z,99.90
2022-08-24T05:34:04.684Z,99.90
2022-08-24T05:36:34.688Z,99.90
2022-08-24T05:39:06.977Z,99.90
2022-08-24T05:41:37.900Z,99.90
2022-08-24T05:44:06.504Z,99.90
2022-08-24T05:46:33.710Z,99.90
2022-08-24T05:49:01.211Z,99.90
2022-08-24T05:51:29.685Z,99.90
2022-08-24T05:53:57.504Z,99.90
2022-08-24T05:56:26.689Z,99.90
2022-08-24T05:58:55.636Z,99.90
2022-08-24T06:01:27.369Z,99.90
2022-08-24T06:03:55.471Z,99.90
2022-08-24T06:06:23.854Z,99.90
2022-08-24T06:08:53.110Z,99.90
2022-08-24T06:11:30.361Z,99.90
2022-08-24T06:14:07.220Z,99.90
2022-08-24T06:16:36.703Z,99.90
2022-08-24T06:19:05.059Z,99.90
2022-08-24T06:21:32.639Z,99.90
2022-08-24T06:24:00.519Z,99.90
2022-08-24T06:26:50.351Z,99.90
2022-08-24T06:29:19.039Z,99.90
2022-08-24T06:31:49.321Z,99.90
2022-08-24T06:34:22.438Z,99.90
2022-08-24T06:36:49.292Z,99.90
2022-08-24T06:39:16.102Z,99.90
2022-08-24T06:41:43.960Z,99.90
2022-08-24T06:44:10.908Z,99.90
2022-08-24T06:46:38.242Z,99.90
2022-08-24T06:49:05.457Z,99.90
2022-08-24T06:51:32.711Z,99.90
2022-08-24T06:54:00.091Z,99.90
2022-08-24T06:56:26.991Z,99.90
2022-08-24T06:58:53.893Z,99.90
2022-08-24T07:01:26.635Z,99.90
2022-08-24T07:03:54.023Z,99.90
2022-08-24T07:06:22.739Z,99.90
2022-08-24T07:08:49.903Z,99.90
2022-08-24T07:11:18.193Z,99.90
2022-08-24T07:13:49.351Z,99.90
2022-08-24T07:16:17.891Z,99.90
2022-08-24T07:18:49.315Z,99.90
2022-08-24T07:21:19.467Z,99.90
2022-08-24T07:23:48.369Z,99.90
2022-08-24T07:26:22.630Z,99.90
2022-08-24T07:29:01.155Z,99.90
2022-08-24T07:31:32.071Z,99.90
2022-08-24T07:34:01.670Z,99.90
2022-08-24T07:36:28.672Z,99.90
2022-08-24T07:38:55.611Z,99.90
2022-08-24T07:41:51.407Z,99.90
2022-08-24T07:44:12.590Z,99.90
2022-08-24T07:46:41.126Z,99.90
2022-08-24T07:51:55.824Z,99.90
2022-08-24T07:54:22.848Z,99.90
2022-08-24T07:56:50.314Z,99.90
2022-08-24T07:59:17.763Z,99.90
2022-08-24T08:01:44.690Z,99.90
2022-08-24T08:04:12.199Z,99.90
2022-08-24T08:06:39.039Z,99.90
2022-08-24T08:09:06.250Z,99.90
2022-08-24T08:11:33.658Z,99.90
2022-08-24T08:14:00.542Z,99.90
2022-08-24T08:16:27.848Z,99.90
2022-08-24T08:19:09.335Z,99.90
2022-08-24T08:22:04.265Z,99.90
2022-08-24T08:24:31.187Z,99.90
2022-08-24T08:26:58.189Z,99.90
2022-08-24T08:33:14.423Z,99.90
2022-08-24T08:35:41.746Z,99.90
2022-08-24T08:38:09.132Z,99.90
2022-08-24T08:40:45.197Z,99.90
2022-08-24T08:43:44.245Z,99.90
2022-08-24T08:46:29.926Z,99.90
2022-08-24T08:49:02.587Z,99.90
2022-08-24T08:52:07.469Z,99.90
2022-08-24T08:54:50.049Z,99.60
2022-08-24T08:57:39.646Z,98.80
2022-08-24T09:00:25.146Z,99.30
2022-08-24T09:03:29.672Z,97.70
2022-08-24T09:06:02.492Z,99.60
2022-08-24T09:08:52.235Z,96.30
2022-08-24T09:11:19.058Z,96.30
2022-08-24T09:14:07.987Z,95.80
2022-08-24T09:16:55.082Z,94.20
2022-08-24T09:19:53.796Z,93.90
2022-08-24T09:22:21.888Z,93.70
2022-08-24T09:24:54.747Z,96.70
2022-08-24T09:27:36.662Z,93.60
2022-08-24T09:30:16.929Z,93.40
2022-08-24T09:32:56.108Z,93.80
2022-08-24T09:35:47.905Z,91.00
2022-08-24T09:38:23.245Z,91.70
2022-08-24T09:41:33.240Z,90.70
2022-08-24T09:44:21.934Z,91.90
2022-08-24T09:47:00.768Z,90.80
2022-08-24T09:49:53.028Z,89.40
2022-08-24T09:52:42.246Z,90.90
2022-08-24T09:55:20.960Z,93.20
2022-08-24T09:58:20.144Z,87.40
2022-08-24T10:01:14.620Z,88.30
2022-08-24T10:04:26.207Z,89.00
2022-08-24T10:07:13.795Z,89.10
2022-08-24T10:10:04.255Z,87.80
2022-08-24T10:12:39.861Z,85.30
2022-08-24T10:15:16.619Z,82.90
2022-08-24T10:18:25.344Z,83.20
2022-08-24T10:21:13.282Z,85.00
2022-08-24T10:23:52.103Z,84.10
2022-08-24T10:26:34.027Z,86.70
2022-08-24T10:29:45.430Z,83.30
2022-08-24T10:32:49.722Z,80.00
2022-08-24T10:35:39.330Z,82.50
2022-08-24T10:38:41.909Z,85.50
2022-08-24T10:41:34.427Z,85.10
2022-08-24T10:44:43.754Z,84.10
2022-08-24T10:47:26.892Z,81.60
2022-08-24T10:50:12.515Z,82.60
2022-08-24T10:52:48.749Z,81.00
2022-08-24T10:55:21.608Z,79.90
2022-08-24T10:57:51.346Z,79.70
2022-08-24T11:00:22.854Z,87.30
2022-08-24T11:03:04.951Z,79.80
2022-08-24T11:05:39.665Z,79.30
2022-08-24T11:08:07.398Z,75.20
2022-08-24T11:10:39.901Z,77.50
2022-08-24T11:13:25.679Z,79.50
2022-08-24T11:15:57.944Z,76.90
2022-08-24T11:18:24.936Z,75.00
2022-08-24T11:20:55.107Z,75.20
2022-08-24T11:23:31.708Z,76.90
2022-08-24T11:27:14.811Z,78.00
2022-08-24T11:29:53.334Z,74.30
2022-08-24T11:32:40.838Z,76.40
2022-08-24T11:35:21.063Z,74.50
2022-08-24T11:37:50.827Z,77.30
2022-08-24T11:40:21.636Z,75.80
2022-08-24T11:43:05.971Z,74.30
2022-08-24T11:46:06.503Z,76.80
2022-08-24T11:48:54.192Z,77.90
2022-08-24T11:55:06.331Z,75.90
2022-08-24T11:57:51.940Z,76.30
2022-08-24T12:00:22.911Z,79.00
2022-08-24T12:03:18.091Z,76.90
2022-08-24T12:06:02.918Z,78.40
2022-08-24T12:09:00.594Z,78.30
2022-08-24T12:11:42.414Z,78.10
2022-08-24T12:18:28.267Z,76.20
2022-08-24T12:20:58.578Z,79.50
2022-08-24T12:24:13.246Z,77.10
2022-08-24T12:26:48.581Z,78.20
2022-08-24T12:29:29.110Z,77.30
2022-08-24T12:32:05.454Z,76.30
2022-08-24T12:43:27.659Z,75.70
2022-08-24T12:46:15.208Z,74.00
2022-08-24T12:56:19.033Z,72.80
2022-08-24T12:59:23.387Z,72.20
2022-08-24T13:02:05.672Z,72.00
2022-08-24T13:09:08.601Z,73.50
2022-08-24T13:16:14.214Z,72.30
2022-08-24T13:19:12.527Z,72.70
2022-08-24T13:21:50.792Z,73.00
2022-08-24T13:24:30.190Z,76.40
2022-08-24T13:27:11.994Z,75.50
2022-08-24T13:29:42.395Z,75.30
2022-08-24T13:39:49.791Z,76.00
2022-08-24T13:45:57.023Z,73.90
2022-08-24T13:48:38.879Z,76.20
2022-08-24T13:51:20.631Z,75.70
2022-08-24T13:54:20.189Z,75.50
2022-08-24T13:57:25.898Z,72.80
2022-08-24T14:00:34.058Z,73.00
2022-08-24T14:03:12.633Z,74.30
2022-08-24T14:05:54.250Z,74.60
2022-08-24T14:09:02.336Z,75.30
2022-08-24T14:11:54.977Z,75.90
2022-08-24T14:14:58.850Z,74.30
2022-08-24T14:24:01.921Z,72.60
2022-08-24T14:26:38.216Z,71.20
2022-08-24T14:29:19.945Z,72.10
2022-08-24T14:32:01.560Z,72.30
2022-08-24T14:35:16.512Z,72.90
2022-08-24T14:38:24.549Z,72.50
2022-08-24T14:41:12.362Z,71.60
2022-08-24T14:44:17.139Z,73.60
2022-08-24T14:47:22.987Z,75.90
2022-08-24T14:49:58.593Z,78.70
2022-08-24T14:53:21.387Z,83.00
2022-08-24T14:56:39.095Z,84.70
2022-08-24T14:59:11.695Z,85.10
2022-08-24T15:02:16.229Z,87.00
2022-08-24T15:04:48.459Z,88.10
2022-08-24T15:07:20.867Z,88.60
2022-08-24T15:09:48.212Z,87.90
2022-08-24T15:12:37.585Z,87.90
2022-08-24T15:15:21.374Z,89.40
2022-08-24T15:18:00.403Z,89.90
2022-08-24T15:20:36.132Z,89.30
2022-08-24T15:23:27.805Z,90.00
2022-08-24T15:26:08.016Z,90.00
2022-08-24T15:28:35.222Z,89.80
2022-08-24T15:31:09.129Z,90.00
2022-08-24T15:33:50.970Z,91.00
2022-08-24T15:36:18.788Z,90.20
2022-08-24T15:38:46.525Z,90.50
2022-08-24T15:41:31.578Z,90.90
2022-08-24T15:44:24.475Z,90.50
2022-08-24T15:47:04.374Z,92.50
2022-08-24T15:49:45.040Z,93.30
2022-08-24T15:52:40.838Z,91.60
2022-08-24T15:55:13.981Z,93.00
2022-08-24T15:57:44.374Z,93.90
2022-08-24T16:00:44.363Z,94.50
2022-08-24T16:03:42.922Z,94.60
2022-08-24T16:06:31.212Z,94.90
2022-08-24T16:08:59.712Z,96.00
2022-08-24T16:11:41.336Z,96.60
2022-08-24T16:14:13.787Z,96.20
2022-08-24T16:16:44.807Z,97.40
2022-08-24T16:19:28.045Z,98.30
2022-08-24T16:22:05.266Z,98.80
2022-08-24T16:24:36.160Z,98.20
2022-08-24T16:27:06.416Z,98.90
2022-08-24T16:29:39.078Z,99.10
2022-08-24T16:32:21.644Z,99.20
2022-08-24T16:35:08.011Z,99.20
2022-08-24T16:37:35.083Z,98.60
2022-08-24T16:40:01.975Z,98.50
2022-08-24T16:42:30.475Z,99.60
2022-08-24T16:44:58.897Z,99.40
2022-08-24T16:47:26.965Z,99.90
2022-08-24T16:49:54.551Z,99.90
2022-08-24T16:52:22.396Z,99.90
2022-08-24T16:54:49.996Z,99.90
2022-08-24T16:57:32.235Z,98.00
2022-08-24T16:59:59.714Z,97.60
2022-08-24T17:02:27.027Z,99.70
2022-08-24T17:04:54.818Z,99.70
2022-08-24T17:07:25.476Z,99.90
2022-08-24T17:09:52.794Z,99.90
2022-08-24T17:12:20.858Z,99.90
2022-08-24T17:14:48.082Z,99.90
2022-08-24T17:17:23.288Z,99.90
2022-08-24T17:19:53.458Z,99.90
2022-08-24T17:22:40.216Z,99.90
2022-08-24T17:25:07.229Z,99.90
2022-08-24T17:27:34.435Z,99.90
2022-08-24T17:30:03.824Z,99.90
2022-08-24T17:32:30.685Z,99.90
2022-08-24T17:34:58.101Z,99.90
2022-08-24T17:37:25.278Z,99.90
2022-08-24T17:39:56.634Z,99.90
2022-08-24T17:42:47.216Z,99.90
2022-08-24T17:45:13.041Z,99.90
2022-08-24T17:47:41.417Z,99.90
2022-08-24T17:50:10.292Z,99.90
2022-08-24T17:52:38.827Z,99.90
2022-08-24T17:55:09.552Z,99.90
2022-08-24T17:57:37.319Z,99.90
2022-08-24T18:00:06.539Z,99.90
2022-08-24T18:02:34.825Z,99.90
2022-08-24T18:05:01.808Z,99.90
2022-08-24T18:07:49.520Z,99.90
2022-08-24T18:10:20.699Z,99.90
2022-08-24T18:12:47.515Z,99.90
2022-08-24T18:15:14.321Z,99.90
2022-08-24T18:17:51.577Z,99.90
2022-08-24T18:20:32.216Z,99.90
2022-08-24T18:26:49.300Z,99.90
2022-08-24T18:29:19.379Z,99.90
2022-08-24T18:31:48.260Z,99.90
2022-08-24T18:34:21.188Z,99.90
2022-08-24T18:37:10.804Z,99.90
2022-08-24T18:40:34.615Z,99.90
2022-08-24T18:46:48.906Z,99.90
2022-08-24T18:49:17.044Z,99.90
2022-08-24T18:51:45.026Z,99.90
2022-08-24T18:54:21.675Z,99.90
2022-08-24T18:56:49.711Z,99.90
2022-08-24T18:59:18.751Z,99.90
2022-08-24T19:02:07.215Z,99.90
2022-08-24T19:04:42.124Z,99.90
2022-08-24T19:07:08.944Z,99.90
2022-08-24T19:10:10.599Z,99.90
2022-08-24T19:12:40.560Z,99.90
2022-08-24T19:15:32.324Z,99.90
2022-08-24T19:18:01.021Z,99.90
2022-08-24T19:20:28.243Z,99.90
2022-08-24T19:23:05.187Z,99.90
2022-08-24T19:25:32.950Z,99.90
2022-08-24T19:27:59.805Z,99.90
2022-08-24T19:30:28.070Z,99.90
2022-08-24T19:32:59.327Z,99.90
2022-08-24T19:35:26.395Z,99.90
2022-08-24T19:37:53.237Z,99.90
2022-08-24T19:40:21.163Z,99.90
2022-08-24T19:42:50.886Z,99.90
2022-08-24T19:45:40.783Z,99.90
2022-08-24T19:48:07.583Z,99.90
2022-08-24T19:50:36.094Z,99.90
2022-08-24T19:53:04.766Z,99.90
2022-08-24T19:55:32.996Z,99.90
2022-08-24T19:58:32.398Z,99.90
2022-08-24T20:01:11.571Z,99.90
2022-08-24T20:03:38.470Z,99.90
2022-08-24T20:06:05.703Z,99.90
2022-08-24T20:08:32.470Z,99.90
2022-08-24T20:11:00.558Z,99.90
2022-08-24T20:13:27.897Z,99.90
2022-08-24T20:15:56.156Z,99.90
2022-08-24T20:18:41.472Z,99.90
2022-08-24T20:21:08.767Z,99.90
2022-08-24T20:23:35.923Z,99.90
2022-08-24T20:26:05.614Z,99.90
2022-08-24T20:28:48.280Z,99.90
2022-08-24T20:31:16.159Z,99.90
2022-08-24T20:33:43.031Z,99.90
2022-08-24T20:36:21.318Z,99.90
2022-08-24T20:38:48.387Z,99.90
2022-08-24T20:41:16.426Z,99.90
2022-08-24T20:43:44.388Z,99.90
2022-08-24T20:46:11.506Z,99.90
2022-08-24T20:48:43.010Z,99.90
2022-08-24T20:51:10.616Z,99.90
2022-08-24T20:53:37.734Z,99.90
2022-08-24T20:56:11.647Z,99.90
2022-08-24T20:58:40.063Z,99.90
2022-08-24T21:01:08.340Z,99.90
2022-08-24T21:03:35.211Z,99.90
2022-08-24T21:06:02.860Z,99.90
2022-08-24T21:08:29.968Z,99.90
2022-08-24T21:10:56.808Z,99.90
2022-08-24T21:13:23.610Z,99.90
2022-08-24T21:15:52.297Z,99.90
2022-08-24T21:18:19.907Z,99.90
2022-08-24T21:21:03.205Z,99.90
2022-08-24T21:23:31.462Z,99.90
2022-08-24T21:25:59.556Z,99.90
2022-08-24T21:28:26.468Z,99.90
2022-08-24T21:30:53.381Z,99.90
2022-08-24T21:33:39.915Z,99.90
2022-08-24T21:36:08.987Z,99.90
2022-08-24T21:38:35.812Z,99.90
2022-08-24T21:41:02.763Z,99.90
2022-08-24T21:43:32.075Z,99.90
2022-08-24T21:46:00.425Z,99.90
2022-08-24T21:48:27.431Z,99.90
2022-08-24T21:50:54.399Z,99.90
2022-08-24T21:53:21.149Z,99.90
2022-08-24T21:55:49.152Z,99.90
2022-08-24T21:58:15.916Z,99.90
2022-08-24T22:00:42.735Z,99.90
2022-08-24T22:03:10.053Z,99.90
2022-08-24T22:05:36.931Z,99.90
2022-08-24T22:08:04.300Z,99.90
2022-08-24T22:10:31.736Z,99.90
2022-08-24T22:13:03.653Z,99.90
2022-08-24T22:15:33.113Z,99.90
2022-08-24T22:18:00.480Z,99.90
2022-08-24T22:20:27.523Z,99.90
2022-08-24T22:22:54.310Z,99.90
2022-08-24T22:25:21.157Z,99.90
2022-08-24T22:27:48.024Z,99.90
2022-08-24T22:30:18.051Z,99.90
2022-08-24T22:32:46.303Z,99.90
2022-08-24T22:35:14.311Z,99.90
2022-08-24T22:37:41.928Z,99.90
2022-08-24T22:40:10.283Z,99.90
2022-08-24T22:42:39.922Z,99.90
2022-08-24T22:45:07.266Z,99.90
2022-08-24T22:47:34.055Z,99.90
2022-08-24T22:50:00.879Z,99.90
2022-08-24T22:52:27.859Z,99.90
2022-08-24T22:54:56.973Z,99.90
2022-08-24T22:57:24.727Z,99.90
2022-08-24T22:59:53.644Z,99.90
2022-08-24T23:02:20.534Z,99.90
2022-08-24T23:04:49.802Z,99.90
2022-08-24T23:07:17.647Z,99.90
2022-08-24T23:09:45.967Z,99.90
2022-08-24T23:12:16.550Z,99.90
2022-08-24T23:14:43.535Z,99.90
2022-08-24T23:17:10.911Z,99.90
2022-08-24T23:19:56.767Z,99.90
2022-08-24T23:22:23.772Z,99.90
2022-08-24T23:24:52.963Z,99.90
2022-08-24T23:27:20.194Z,99.90
2022-08-24T23:29:48.555Z,99.90
2022-08-24T23:32:18.211Z,99.90
2022-08-24T23:34:46.720Z,99.90
2022-08-24T23:37:15.502Z,99.90
2022-08-24T23:39:43.132Z,99.90
2022-08-24T23:42:09.935Z,99.90
2022-08-24T23:44:36.797Z,99.90
2022-08-24T23:47:04.099Z,99.90
2022-08-24T23:49:31.158Z,99.90
2022-08-24T23:51:58.559Z,99.90
2022-08-24T23:54:25.811Z,99.90
2022-08-24T23:56:53.580Z,99.90
2022-08-24T23:59:27.877Z,99.90
